sensor_id;sensor_type;location;lat;lon;timestamp;P1;durP1;ratioP1;P2;durP2;ratioP2
36855;SDS011;22788;51.434;6.786;2022-09-03T00:01:10;3.05;;;1.65;;
36855;SDS011;22788;51.434;6.786;2022-09-03T00:03:41;1.70;;;1.60;;
36855;SDS011;22788;51.434;6.786;2022-09-03T00:06:10;1.50;;;1.40;;
36855;SDS011;22788;51.434;6.786;2022-09-03T00:08:38;2.38;;;1.58;;
36855;SDS011;22788;51.434;6.786;2022-09-03T00:11:10;3.40;;;1.50;;
36855;SDS011;22788;51.434;6.786;2022-09-03T00:13:39;1.52;;;1.42;;
36855;SDS011;22788;51.434;6.786;2022-09-03T00:16:08;1.50;;;1.40;;
36855;SDS011;22788;51.434;6.786;2022-09-03T00:18:37;1.90;;;1.48;;
36855;SDS011;22788;51.434;6.786;2022-09-03T00:21:09;1.60;;;1.50;;
36855;SDS011;22788;51.434;6.786;2022-09-03T00:23:38;1.67;;;1.42;;
36855;SDS011;22788;51.434;6.786;2022-09-03T00:26:08;1.55;;;1.45;;
36855;SDS011;22788;51.434;6.786;2022-09-03T00:28:35;2.15;;;1.58;;
36855;SDS011;22788;51.434;6.786;2022-09-03T00:31:06;2.65;;;1.60;;
36855;SDS011;22788;51.434;6.786;2022-09-03T00:33:34;1.65;;;1.55;;
36855;SDS011;22788;51.434;6.786;2022-09-03T00:36:06;1.42;;;1.33;;
36855;SDS011;22788;51.434;6.786;2022-09-03T00:38:35;1.85;;;1.45;;
36855;SDS011;22788;51.434;6.786;2022-09-03T00:41:04;1.30;;;1.20;;
36855;SDS011;22788;51.434;6.786;2022-09-03T00:43:36;2.08;;;1.40;;
36855;SDS011;22788;51.434;6.786;2022-09-03T00:46:08;2.08;;;1.50;;
36855;SDS011;22788;51.434;6.786;2022-09-03T00:48:43;3.13;;;1.48;;
36855;SDS011;22788;51.434;6.786;2022-09-03T00:51:14;2.08;;;1.70;;
36855;SDS011;22788;51.434;6.786;2022-09-03T00:53:45;1.70;;;1.60;;
36855;SDS011;22788;51.434;6.786;2022-09-03T00:56:16;2.00;;;1.30;;
36855;SDS011;22788;51.434;6.786;2022-09-03T00:58:53;1.50;;;1.40;;
36855;SDS011;22788;51.434;6.786;2022-09-03T01:01:23;2.10;;;1.42;;
36855;SDS011;22788;51.434;6.786;2022-09-03T01:03:55;1.77;;;1.63;;
36855;SDS011;22788;51.434;6.786;2022-09-03T01:06:28;1.70;;;1.50;;
36855;SDS011;22788;51.434;6.786;2022-09-03T01:09:06;1.85;;;1.45;;
36855;SDS011;22788;51.434;6.786;2022-09-03T01:11:36;1.73;;;1.50;;
36855;SDS011;22788;51.434;6.786;2022-09-03T01:14:05;4.18;;;1.55;;
36855;SDS011;22788;51.434;6.786;2022-09-03T01:16:35;2.28;;;1.50;;
36855;SDS011;22788;51.434;6.786;2022-09-03T01:19:09;1.80;;;1.48;;
36855;SDS011;22788;51.434;6.786;2022-09-03T01:21:44;1.70;;;1.50;;
36855;SDS011;22788;51.434;6.786;2022-09-03T01:24:19;2.13;;;1.70;;
36855;SDS011;22788;51.434;6.786;2022-09-03T01:26:54;1.77;;;1.42;;
36855;SDS011;22788;51.434;6.786;2022-09-03T01:29:28;1.63;;;1.40;;
36855;SDS011;22788;51.434;6.786;2022-09-03T01:31:59;1.70;;;1.60;;
36855;SDS011;22788;51.434;6.786;2022-09-03T01:34:30;2.33;;;1.73;;
36855;SDS011;22788;51.434;6.786;2022-09-03T01:37:00;2.95;;;1.73;;
36855;SDS011;22788;51.434;6.786;2022-09-03T01:39:28;2.10;;;1.90;;
36855;SDS011;22788;51.434;6.786;2022-09-03T01:42:00;2.15;;;1.73;;
36855;SDS011;22788;51.434;6.786;2022-09-03T01:44:30;4.45;;;1.80;;
36855;SDS011;22788;51.434;6.786;2022-09-03T01:47:00;2.08;;;1.60;;
36855;SDS011;22788;51.434;6.786;2022-09-03T01:49:30;1.67;;;1.52;;
36855;SDS011;22788;51.434;6.786;2022-09-03T01:51:58;3.08;;;1.88;;
36855;SDS011;22788;51.434;6.786;2022-09-03T01:54:34;3.63;;;1.70;;
36855;SDS011;22788;51.434;6.786;2022-09-03T01:57:10;1.92;;;1.63;;
36855;SDS011;22788;51.434;6.786;2022-09-03T01:59:42;3.72;;;2.00;;
36855;SDS011;22788;51.434;6.786;2022-09-03T02:02:13;2.15;;;1.65;;
36855;SDS011;22788;51.434;6.786;2022-09-03T02:04:41;2.28;;;1.73;;
36855;SDS011;22788;51.434;6.786;2022-09-03T02:07:07;4.65;;;2.00;;
36855;SDS011;22788;51.434;6.786;2022-09-03T02:09:34;2.78;;;1.73;;
36855;SDS011;22788;51.434;6.786;2022-09-03T02:12:02;3.38;;;1.70;;
36855;SDS011;22788;51.434;6.786;2022-09-03T02:14:31;1.45;;;1.35;;
36855;SDS011;22788;51.434;6.786;2022-09-03T02:16:59;2.70;;;1.60;;
36855;SDS011;22788;51.434;6.786;2022-09-03T02:19:27;1.85;;;1.73;;
36855;SDS011;22788;51.434;6.786;2022-09-03T02:21:55;3.17;;;1.70;;
36855;SDS011;22788;51.434;6.786;2022-09-03T02:24:22;3.33;;;1.92;;
36855;SDS011;22788;51.434;6.786;2022-09-03T02:26:49;2.22;;;1.95;;
36855;SDS011;22788;51.434;6.786;2022-09-03T02:29:15;2.05;;;1.77;;
36855;SDS011;22788;51.434;6.786;2022-09-03T02:31:42;1.48;;;1.38;;
36855;SDS011;22788;51.434;6.786;2022-09-03T02:34:09;2.92;;;1.60;;
36855;SDS011;22788;51.434;6.786;2022-09-03T02:36:37;2.05;;;1.85;;
36855;SDS011;22788;51.434;6.786;2022-09-03T02:39:03;2.92;;;2.08;;
36855;SDS011;22788;51.434;6.786;2022-09-03T02:41:30;1.70;;;1.58;;
36855;SDS011;22788;51.434;6.786;2022-09-03T02:43:58;2.83;;;1.42;;
36855;SDS011;22788;51.434;6.786;2022-09-03T02:46:28;3.22;;;1.67;;
36855;SDS011;22788;51.434;6.786;2022-09-03T02:48:55;1.90;;;1.70;;
36855;SDS011;22788;51.434;6.786;2022-09-03T02:51:23;2.50;;;1.73;;
36855;SDS011;22788;51.434;6.786;2022-09-03T02:53:49;2.22;;;1.48;;
36855;SDS011;22788;51.434;6.786;2022-09-03T02:56:16;2.67;;;1.88;;
36855;SDS011;22788;51.434;6.786;2022-09-03T02:58:42;1.63;;;1.45;;
36855;SDS011;22788;51.434;6.786;2022-09-03T03:01:08;1.75;;;1.60;;
36855;SDS011;22788;51.434;6.786;2022-09-03T03:03:35;2.30;;;1.52;;
36855;SDS011;22788;51.434;6.786;2022-09-03T03:06:01;2.28;;;1.77;;
36855;SDS011;22788;51.434;6.786;2022-09-03T03:08:30;2.47;;;1.80;;
36855;SDS011;22788;51.434;6.786;2022-09-03T03:10:57;2.22;;;1.60;;
36855;SDS011;22788;51.434;6.786;2022-09-03T03:13:23;2.67;;;1.50;;
36855;SDS011;22788;51.434;6.786;2022-09-03T03:15:50;1.85;;;1.55;;
36855;SDS011;22788;51.434;6.786;2022-09-03T03:18:16;2.55;;;1.65;;
36855;SDS011;22788;51.434;6.786;2022-09-03T03:20:42;3.40;;;1.90;;
36855;SDS011;22788;51.434;6.786;2022-09-03T03:23:09;1.60;;;1.50;;
36855;SDS011;22788;51.434;6.786;2022-09-03T03:25:37;1.75;;;1.65;;
36855;SDS011;22788;51.434;6.786;2022-09-03T03:28:04;2.08;;;1.50;;
36855;SDS011;22788;51.434;6.786;2022-09-03T03:30:31;2.10;;;1.67;;
36855;SDS011;22788;51.434;6.786;2022-09-03T03:32:57;3.35;;;1.75;;
36855;SDS011;22788;51.434;6.786;2022-09-03T03:35:24;2.25;;;1.73;;
36855;SDS011;22788;51.434;6.786;2022-09-03T03:37:50;2.58;;;1.48;;
36855;SDS011;22788;51.434;6.786;2022-09-03T03:40:17;2.95;;;1.73;;
36855;SDS011;22788;51.434;6.786;2022-09-03T03:42:44;1.98;;;1.70;;
36855;SDS011;22788;51.434;6.786;2022-09-03T03:45:11;3.20;;;2.03;;
36855;SDS011;22788;51.434;6.786;2022-09-03T03:47:37;2.13;;;1.70;;
36855;SDS011;22788;51.434;6.786;2022-09-03T03:50:04;2.03;;;1.60;;
36855;SDS011;22788;51.434;6.786;2022-09-03T03:52:30;3.15;;;1.70;;
36855;SDS011;22788;51.434;6.786;2022-09-03T03:54:56;3.25;;;1.63;;
36855;SDS011;22788;51.434;6.786;2022-09-03T03:57:23;3.55;;;1.83;;
36855;SDS011;22788;51.434;6.786;2022-09-03T03:59:51;2.28;;;1.63;;
36855;SDS011;22788;51.434;6.786;2022-09-03T04:02:17;2.28;;;1.65;;
36855;SDS011;22788;51.434;6.786;2022-09-03T04:04:43;2.03;;;1.70;;
36855;SDS011;22788;51.434;6.786;2022-09-03T04:07:09;3.17;;;1.75;;
36855;SDS011;22788;51.434;6.786;2022-09-03T04:09:36;2.05;;;1.50;;
36855;SDS011;22788;51.434;6.786;2022-09-03T04:12:02;2.28;;;1.50;;
36855;SDS011;22788;51.434;6.786;2022-09-03T04:14:28;2.25;;;1.75;;
36855;SDS011;22788;51.434;6.786;2022-09-03T04:16:56;2.00;;;1.80;;
36855;SDS011;22788;51.434;6.786;2022-09-03T04:19:22;3.28;;;2.10;;
36855;SDS011;22788;51.434;6.786;2022-09-03T04:21:49;2.85;;;1.95;;
36855;SDS011;22788;51.434;6.786;2022-09-03T04:24:15;4.03;;;1.90;;
36855;SDS011;22788;51.434;6.786;2022-09-03T04:26:41;2.17;;;1.70;;
36855;SDS011;22788;51.434;6.786;2022-09-03T04:29:08;2.72;;;1.60;;
36855;SDS011;22788;51.434;6.786;2022-09-03T04:31:35;3.60;;;1.80;;
36855;SDS011;22788;51.434;6.786;2022-09-03T04:34:03;2.05;;;1.60;;
36855;SDS011;22788;51.434;6.786;2022-09-03T04:36:30;2.00;;;1.65;;
36855;SDS011;22788;51.434;6.786;2022-09-03T04:38:57;3.65;;;1.52;;
36855;SDS011;22788;51.434;6.786;2022-09-03T04:41:24;3.85;;;1.90;;
36855;SDS011;22788;51.434;6.786;2022-09-03T04:43:51;3.78;;;1.80;;
36855;SDS011;22788;51.434;6.786;2022-09-03T04:46:18;2.33;;;1.83;;
36855;SDS011;22788;51.434;6.786;2022-09-03T04:48:46;2.50;;;1.70;;
36855;SDS011;22788;51.434;6.786;2022-09-03T04:51:14;2.65;;;1.70;;
36855;SDS011;22788;51.434;6.786;2022-09-03T04:53:42;2.00;;;1.83;;
36855;SDS011;22788;51.434;6.786;2022-09-03T04:56:12;2.45;;;1.80;;
36855;SDS011;22788;51.434;6.786;2022-09-03T04:58:38;2.38;;;1.83;;
36855;SDS011;22788;51.434;6.786;2022-09-03T05:01:06;4.18;;;1.83;;
36855;SDS011;22788;51.434;6.786;2022-09-03T05:03:32;2.25;;;1.75;;
36855;SDS011;22788;51.434;6.786;2022-09-03T05:05:59;2.78;;;1.83;;
36855;SDS011;22788;51.434;6.786;2022-09-03T05:08:26;2.15;;;1.60;;
36855;SDS011;22788;51.434;6.786;2022-09-03T05:10:56;2.00;;;1.77;;
36855;SDS011;22788;51.434;6.786;2022-09-03T05:13:23;3.50;;;1.90;;
36855;SDS011;22788;51.434;6.786;2022-09-03T05:15:49;3.35;;;1.80;;
36855;SDS011;22788;51.434;6.786;2022-09-03T05:18:15;2.50;;;2.15;;
36855;SDS011;22788;51.434;6.786;2022-09-03T05:20:42;1.83;;;1.60;;
36855;SDS011;22788;51.434;6.786;2022-09-03T05:23:08;2.25;;;2.00;;
36855;SDS011;22788;51.434;6.786;2022-09-03T05:25:36;3.83;;;1.90;;
36855;SDS011;22788;51.434;6.786;2022-09-03T05:28:02;2.55;;;1.95;;
36855;SDS011;22788;51.434;6.786;2022-09-03T05:30:28;2.40;;;1.75;;
36855;SDS011;22788;51.434;6.786;2022-09-03T05:32:55;2.10;;;1.90;;
36855;SDS011;22788;51.434;6.786;2022-09-03T05:35:21;2.42;;;1.70;;
36855;SDS011;22788;51.434;6.786;2022-09-03T05:37:47;2.50;;;1.75;;
36855;SDS011;22788;51.434;6.786;2022-09-03T05:40:14;2.42;;;1.60;;
36855;SDS011;22788;51.434;6.786;2022-09-03T05:42:41;3.20;;;1.73;;
36855;SDS011;22788;51.434;6.786;2022-09-03T05:45:08;2.85;;;2.00;;
36855;SDS011;22788;51.434;6.786;2022-09-03T05:47:35;2.58;;;1.90;;
36855;SDS011;22788;51.434;6.786;2022-09-03T05:50:02;2.78;;;1.75;;
36855;SDS011;22788;51.434;6.786;2022-09-03T05:52:28;2.55;;;1.70;;
36855;SDS011;22788;51.434;6.786;2022-09-03T05:54:54;4.13;;;1.77;;
36855;SDS011;22788;51.434;6.786;2022-09-03T05:57:21;3.15;;;1.90;;
36855;SDS011;22788;51.434;6.786;2022-09-03T05:59:48;3.13;;;2.28;;
36855;SDS011;22788;51.434;6.786;2022-09-03T06:02:14;1.95;;;1.73;;
36855;SDS011;22788;51.434;6.786;2022-09-03T06:04:41;2.05;;;1.80;;
36855;SDS011;22788;51.434;6.786;2022-09-03T06:07:07;2.63;;;1.77;;
36855;SDS011;22788;51.434;6.786;2022-09-03T06:09:33;1.77;;;1.65;;
36855;SDS011;22788;51.434;6.786;2022-09-03T06:12:00;2.28;;;1.63;;
36855;SDS011;22788;51.434;6.786;2022-09-03T06:14:26;2.22;;;1.83;;
36855;SDS011;22788;51.434;6.786;2022-09-03T06:16:54;4.13;;;1.80;;
36855;SDS011;22788;51.434;6.786;2022-09-03T06:19:20;2.50;;;1.95;;
36855;SDS011;22788;51.434;6.786;2022-09-03T06:21:47;2.33;;;1.70;;
36855;SDS011;22788;51.434;6.786;2022-09-03T06:24:13;1.63;;;1.52;;
36855;SDS011;22788;51.434;6.786;2022-09-03T06:26:40;5.07;;;1.70;;
36855;SDS011;22788;51.434;6.786;2022-09-03T06:29:07;2.63;;;1.88;;
36855;SDS011;22788;51.434;6.786;2022-09-03T06:31:33;3.85;;;1.98;;
36855;SDS011;22788;51.434;6.786;2022-09-03T06:34:01;3.97;;;1.75;;
36855;SDS011;22788;51.434;6.786;2022-09-03T06:36:27;2.10;;;1.83;;
36855;SDS011;22788;51.434;6.786;2022-09-03T06:38:54;3.55;;;1.75;;
36855;SDS011;22788;51.434;6.786;2022-09-03T06:41:21;3.22;;;1.83;;
36855;SDS011;22788;51.434;6.786;2022-09-03T06:43:48;2.15;;;1.70;;
36855;SDS011;22788;51.434;6.786;2022-09-03T06:46:15;2.00;;;1.77;;
36855;SDS011;22788;51.434;6.786;2022-09-03T06:48:41;3.13;;;1.80;;
36855;SDS011;22788;51.434;6.786;2022-09-03T06:51:10;2.17;;;1.70;;
36855;SDS011;22788;51.434;6.786;2022-09-03T06:53:37;4.45;;;2.10;;
36855;SDS011;22788;51.434;6.786;2022-09-03T06:56:04;2.15;;;1.80;;
36855;SDS011;22788;51.434;6.786;2022-09-03T06:58:31;2.17;;;1.77;;
36855;SDS011;22788;51.434;6.786;2022-09-03T07:01:01;3.17;;;1.80;;
36855;SDS011;22788;51.434;6.786;2022-09-03T07:03:27;3.10;;;2.03;;
36855;SDS011;22788;51.434;6.786;2022-09-03T07:05:58;3.78;;;1.83;;
36855;SDS011;22788;51.434;6.786;2022-09-03T07:08:26;1.77;;;1.67;;
36855;SDS011;22788;51.434;6.786;2022-09-03T07:10:52;1.80;;;1.70;;
36855;SDS011;22788;51.434;6.786;2022-09-03T07:13:18;3.88;;;1.60;;
36855;SDS011;22788;51.434;6.786;2022-09-03T07:15:45;2.15;;;1.73;;
36855;SDS011;22788;51.434;6.786;2022-09-03T07:18:11;4.22;;;1.88;;
36855;SDS011;22788;51.434;6.786;2022-09-03T07:20:37;4.72;;;1.98;;
36855;SDS011;22788;51.434;6.786;2022-09-03T07:23:05;3.75;;;2.05;;
36855;SDS011;22788;51.434;6.786;2022-09-03T07:25:32;3.70;;;1.70;;
36855;SDS011;22788;51.434;6.786;2022-09-03T07:27:59;2.75;;;1.80;;
36855;SDS011;22788;51.434;6.786;2022-09-03T07:30:25;2.22;;;1.73;;
36855;SDS011;22788;51.434;6.786;2022-09-03T07:32:51;2.67;;;2.00;;
36855;SDS011;22788;51.434;6.786;2022-09-03T07:35:18;4.20;;;1.75;;
36855;SDS011;22788;51.434;6.786;2022-09-03T07:37:44;1.92;;;1.65;;
36855;SDS011;22788;51.434;6.786;2022-09-03T07:40:10;2.92;;;1.90;;
36855;SDS011;22788;51.434;6.786;2022-09-03T07:42:38;2.47;;;1.80;;
36855;SDS011;22788;51.434;6.786;2022-09-03T07:45:05;2.40;;;2.00;;
36855;SDS011;22788;51.434;6.786;2022-09-03T07:47:32;2.05;;;1.63;;
36855;SDS011;22788;51.434;6.786;2022-09-03T07:49:58;3.00;;;1.67;;
36855;SDS011;22788;51.434;6.786;2022-09-03T07:52:24;2.60;;;1.77;;
36855;SDS011;22788;51.434;6.786;2022-09-03T07:54:50;3.60;;;1.60;;
36855;SDS011;22788;51.434;6.786;2022-09-03T07:57:17;2.25;;;1.60;;
36855;SDS011;22788;51.434;6.786;2022-09-03T07:59:44;2.47;;;1.70;;
36855;SDS011;22788;51.434;6.786;2022-09-03T08:02:11;1.95;;;1.75;;
36855;SDS011;22788;51.434;6.786;2022-09-03T08:04:37;2.70;;;1.65;;
36855;SDS011;22788;51.434;6.786;2022-09-03T08:07:03;2.88;;;1.40;;
36855;SDS011;22788;51.434;6.786;2022-09-03T08:09:30;2.75;;;1.60;;
36855;SDS011;22788;51.434;6.786;2022-09-03T08:11:56;2.78;;;1.70;;
36855;SDS011;22788;51.434;6.786;2022-09-03T08:14:22;4.22;;;2.15;;
36855;SDS011;22788;51.434;6.786;2022-09-03T08:16:50;2.65;;;1.70;;
36855;SDS011;22788;51.434;6.786;2022-09-03T08:19:16;2.38;;;1.60;;
36855;SDS011;22788;51.434;6.786;2022-09-03T08:21:43;2.42;;;1.83;;
36855;SDS011;22788;51.434;6.786;2022-09-03T08:24:10;2.72;;;1.65;;
36855;SDS011;22788;51.434;6.786;2022-09-03T08:26:37;1.60;;;1.50;;
36855;SDS011;22788;51.434;6.786;2022-09-03T08:29:04;2.00;;;1.80;;
36855;SDS011;22788;51.434;6.786;2022-09-03T08:31:31;2.63;;;1.58;;
36855;SDS011;22788;51.434;6.786;2022-09-03T08:33:59;4.85;;;1.60;;
36855;SDS011;22788;51.434;6.786;2022-09-03T08:36:27;2.55;;;1.50;;
36855;SDS011;22788;51.434;6.786;2022-09-03T08:38:54;2.78;;;1.30;;
36855;SDS011;22788;51.434;6.786;2022-09-03T08:41:22;1.70;;;1.60;;
36855;SDS011;22788;51.434;6.786;2022-09-03T08:43:53;2.05;;;1.60;;
36855;SDS011;22788;51.434;6.786;2022-09-03T08:46:22;2.40;;;1.30;;
36855;SDS011;22788;51.434;6.786;2022-09-03T08:48:50;1.50;;;1.38;;
36855;SDS011;22788;51.434;6.786;2022-09-03T08:51:18;1.85;;;1.30;;
36855;SDS011;22788;51.434;6.786;2022-09-03T08:53:48;2.22;;;1.70;;
36855;SDS011;22788;51.434;6.786;2022-09-03T08:56:17;2.40;;;1.80;;
36855;SDS011;22788;51.434;6.786;2022-09-03T08:58:45;3.22;;;1.40;;
36855;SDS011;22788;51.434;6.786;2022-09-03T09:01:13;2.45;;;1.60;;
36855;SDS011;22788;51.434;6.786;2022-09-03T09:03:46;6.75;;;1.55;;
36855;SDS011;22788;51.434;6.786;2022-09-03T09:06:18;2.67;;;1.25;;
36855;SDS011;22788;51.434;6.786;2022-09-03T09:08:48;2.47;;;1.98;;
36855;SDS011;22788;51.434;6.786;2022-09-03T09:11:18;1.73;;;1.50;;
36855;SDS011;22788;51.434;6.786;2022-09-03T09:13:47;1.45;;;1.35;;
36855;SDS011;22788;51.434;6.786;2022-09-03T09:16:18;1.50;;;1.40;;
36855;SDS011;22788;51.434;6.786;2022-09-03T09:18:49;2.60;;;1.48;;
36855;SDS011;22788;51.434;6.786;2022-09-03T09:21:25;3.08;;;1.50;;
36855;SDS011;22788;51.434;6.786;2022-09-03T09:23:52;2.17;;;1.73;;
36855;SDS011;22788;51.434;6.786;2022-09-03T09:26:20;1.42;;;1.33;;
36855;SDS011;22788;51.434;6.786;2022-09-03T09:28:49;3.08;;;1.50;;
36855;SDS011;22788;51.434;6.786;2022-09-03T09:31:16;1.77;;;1.45;;
36855;SDS011;22788;51.434;6.786;2022-09-03T09:33:43;3.28;;;1.33;;
36855;SDS011;22788;51.434;6.786;2022-09-03T09:36:10;1.65;;;1.30;;
36855;SDS011;22788;51.434;6.786;2022-09-03T09:38:38;1.83;;;1.23;;
36855;SDS011;22788;51.434;6.786;2022-09-03T09:41:08;2.90;;;1.92;;
36855;SDS011;22788;51.434;6.786;2022-09-03T09:43:35;2.28;;;1.60;;
36855;SDS011;22788;51.434;6.786;2022-09-03T09:46:05;1.83;;;1.50;;
36855;SDS011;22788;51.434;6.786;2022-09-03T09:48:32;1.90;;;1.55;;
36855;SDS011;22788;51.434;6.786;2022-09-03T09:51:02;1.77;;;1.40;;
36855;SDS011;22788;51.434;6.786;2022-09-03T09:53:29;1.30;;;1.20;;
36855;SDS011;22788;51.434;6.786;2022-09-03T09:55:57;1.55;;;1.45;;
36855;SDS011;22788;51.434;6.786;2022-09-03T09:58:31;1.90;;;1.42;;
36855;SDS011;22788;51.434;6.786;2022-09-03T10:01:02;2.20;;;1.40;;
36855;SDS011;22788;51.434;6.786;2022-09-03T10:03:30;3.53;;;1.70;;
36855;SDS011;22788;51.434;6.786;2022-09-03T10:05:57;2.28;;;1.25;;
36855;SDS011;22788;51.434;6.786;2022-09-03T10:08:25;1.63;;;1.33;;
36855;SDS011;22788;51.434;6.786;2022-09-03T10:10:52;1.52;;;1.23;;
36855;SDS011;22788;51.434;6.786;2022-09-03T10:13:20;3.35;;;1.52;;
36855;SDS011;22788;51.434;6.786;2022-09-03T10:15:47;2.42;;;1.35;;
36855;SDS011;22788;51.434;6.786;2022-09-03T10:18:16;1.65;;;1.40;;
36855;SDS011;22788;51.434;6.786;2022-09-03T10:20:46;1.55;;;1.45;;
36855;SDS011;22788;51.434;6.786;2022-09-03T10:23:14;1.58;;;1.33;;
36855;SDS011;22788;51.434;6.786;2022-09-03T10:25:51;2.15;;;1.38;;
36855;SDS011;22788;51.434;6.786;2022-09-03T10:28:21;2.20;;;1.30;;
36855;SDS011;22788;51.434;6.786;2022-09-03T10:30:56;1.70;;;1.35;;
36855;SDS011;22788;51.434;6.786;2022-09-03T10:33:28;1.50;;;1.40;;
36855;SDS011;22788;51.434;6.786;2022-09-03T10:35:56;2.22;;;1.80;;
36855;SDS011;22788;51.434;6.786;2022-09-03T10:38:28;1.58;;;1.48;;
36855;SDS011;22788;51.434;6.786;2022-09-03T10:40:59;3.63;;;1.70;;
36855;SDS011;22788;51.434;6.786;2022-09-03T10:43:40;1.88;;;1.40;;
36855;SDS011;22788;51.434;6.786;2022-09-03T10:46:14;4.25;;;1.60;;
36855;SDS011;22788;51.434;6.786;2022-09-03T10:48:45;2.47;;;1.40;;
36855;SDS011;22788;51.434;6.786;2022-09-03T10:51:15;1.75;;;1.40;;
36855;SDS011;22788;51.434;6.786;2022-09-03T10:53:47;2.67;;;1.38;;
36855;SDS011;22788;51.434;6.786;2022-09-03T10:56:18;2.20;;;1.45;;
36855;SDS011;22788;51.434;6.786;2022-09-03T10:58:55;2.40;;;1.63;;
36855;SDS011;22788;51.434;6.786;2022-09-03T11:01:25;1.48;;;1.38;;
36855;SDS011;22788;51.434;6.786;2022-09-03T11:03:55;1.52;;;1.42;;
36855;SDS011;22788;51.434;6.786;2022-09-03T11:06:25;2.50;;;1.63;;
36855;SDS011;22788;51.434;6.786;2022-09-03T11:08:54;2.33;;;1.50;;
36855;SDS011;22788;51.434;6.786;2022-09-03T11:11:25;4.10;;;1.45;;
36855;SDS011;22788;51.434;6.786;2022-09-03T11:13:55;2.65;;;1.38;;
36855;SDS011;22788;51.434;6.786;2022-09-03T11:16:25;3.03;;;1.35;;
36855;SDS011;22788;51.434;6.786;2022-09-03T11:18:54;1.70;;;1.60;;
36855;SDS011;22788;51.434;6.786;2022-09-03T11:21:22;1.63;;;1.45;;
36855;SDS011;22788;51.434;6.786;2022-09-03T11:23:50;3.08;;;1.90;;
36855;SDS011;22788;51.434;6.786;2022-09-03T11:26:17;3.38;;;1.67;;
36855;SDS011;22788;51.434;6.786;2022-09-03T11:28:47;3.35;;;1.70;;
36855;SDS011;22788;51.434;6.786;2022-09-03T11:31:23;3.78;;;1.65;;
36855;SDS011;22788;51.434;6.786;2022-09-03T11:33:53;2.28;;;1.77;;
36855;SDS011;22788;51.434;6.786;2022-09-03T11:36:22;2.78;;;1.60;;
36855;SDS011;22788;51.434;6.786;2022-09-03T11:38:48;2.75;;;1.65;;
36855;SDS011;22788;51.434;6.786;2022-09-03T11:41:22;2.78;;;1.80;;
36855;SDS011;22788;51.434;6.786;2022-09-03T11:43:49;1.98;;;1.80;;
36855;SDS011;22788;51.434;6.786;2022-09-03T11:46:27;2.50;;;1.55;;
36855;SDS011;22788;51.434;6.786;2022-09-03T11:48:54;2.10;;;1.60;;
36855;SDS011;22788;51.434;6.786;2022-09-03T11:51:31;2.20;;;1.80;;
36855;SDS011;22788;51.434;6.786;2022-09-03T11:53:58;2.47;;;2.03;;
36855;SDS011;22788;51.434;6.786;2022-09-03T11:56:25;2.50;;;2.30;;
36855;SDS011;22788;51.434;6.786;2022-09-03T11:59:05;2.28;;;2.08;;
36855;SDS011;22788;51.434;6.786;2022-09-03T12:01:42;2.45;;;1.88;;
36855;SDS011;22788;51.434;6.786;2022-09-03T12:04:09;2.88;;;2.08;;
36855;SDS011;22788;51.434;6.786;2022-09-03T12:06:45;2.55;;;1.90;;
36855;SDS011;22788;51.434;6.786;2022-09-03T12:09:20;2.25;;;1.70;;
36855;SDS011;22788;51.434;6.786;2022-09-03T12:11:52;2.28;;;2.08;;
36855;SDS011;22788;51.434;6.786;2022-09-03T12:14:27;2.58;;;2.00;;
36855;SDS011;22788;51.434;6.786;2022-09-03T12:16:59;2.20;;;1.77;;
36855;SDS011;22788;51.434;6.786;2022-09-03T12:19:31;2.30;;;1.70;;
36855;SDS011;22788;51.434;6.786;2022-09-03T12:22:01;2.15;;;1.95;;
36855;SDS011;22788;51.434;6.786;2022-09-03T12:24:27;1.90;;;1.80;;
36855;SDS011;22788;51.434;6.786;2022-09-03T12:26:53;2.50;;;1.85;;
36855;SDS011;22788;51.434;6.786;2022-09-03T12:29:21;2.15;;;1.95;;
36855;SDS011;22788;51.434;6.786;2022-09-03T12:31:48;2.50;;;1.88;;
36855;SDS011;22788;51.434;6.786;2022-09-03T12:34:16;1.95;;;1.85;;
36855;SDS011;22788;51.434;6.786;2022-09-03T12:36:43;2.10;;;1.90;;
36855;SDS011;22788;51.434;6.786;2022-09-03T12:39:10;4.38;;;2.17;;
36855;SDS011;22788;51.434;6.786;2022-09-03T12:41:36;2.03;;;1.90;;
36855;SDS011;22788;51.434;6.786;2022-09-03T12:44:03;4.07;;;1.60;;
36855;SDS011;22788;51.434;6.786;2022-09-03T12:46:30;2.55;;;1.98;;
36855;SDS011;22788;51.434;6.786;2022-09-03T12:48:57;2.22;;;1.80;;
36855;SDS011;22788;51.434;6.786;2022-09-03T12:51:25;3.72;;;1.90;;
36855;SDS011;22788;51.434;6.786;2022-09-03T12:53:51;2.17;;;1.70;;
36855;SDS011;22788;51.434;6.786;2022-09-03T12:56:18;2.50;;;1.92;;
36855;SDS011;22788;51.434;6.786;2022-09-03T12:58:46;1.92;;;1.80;;
36855;SDS011;22788;51.434;6.786;2022-09-03T13:01:15;3.08;;;1.80;;
36855;SDS011;22788;51.434;6.786;2022-09-03T13:03:45;3.58;;;1.80;;
36855;SDS011;22788;51.434;6.786;2022-09-03T13:06:13;3.72;;;1.92;;
36855;SDS011;22788;51.434;6.786;2022-09-03T13:08:43;2.58;;;2.30;;
36855;SDS011;22788;51.434;6.786;2022-09-03T13:11:09;2.17;;;1.83;;
36855;SDS011;22788;51.434;6.786;2022-09-03T13:13:47;1.80;;;1.67;;
36855;SDS011;22788;51.434;6.786;2022-09-03T13:16:22;2.28;;;2.08;;
36855;SDS011;22788;51.434;6.786;2022-09-03T13:18:55;3.35;;;1.90;;
36855;SDS011;22788;51.434;6.786;2022-09-03T13:21:28;4.53;;;2.40;;
36855;SDS011;22788;51.434;6.786;2022-09-03T13:26:41;2.67;;;2.05;;
36855;SDS011;22788;51.434;6.786;2022-09-03T13:29:20;5.18;;;2.45;;
36855;SDS011;22788;51.434;6.786;2022-09-03T13:31:50;6.00;;;2.60;;
36855;SDS011;22788;51.434;6.786;2022-09-03T13:34:19;6.80;;;2.58;;
36855;SDS011;22788;51.434;6.786;2022-09-03T13:36:48;7.22;;;2.78;;
36855;SDS011;22788;51.434;6.786;2022-09-03T13:39:19;3.70;;;2.15;;
36855;SDS011;22788;51.434;6.786;2022-09-03T13:41:48;3.88;;;2.20;;
36855;SDS011;22788;51.434;6.786;2022-09-03T13:44:17;6.32;;;2.60;;
36855;SDS011;22788;51.434;6.786;2022-09-03T13:46:45;5.00;;;2.55;;
36855;SDS011;22788;51.434;6.786;2022-09-03T13:49:25;4.40;;;2.45;;
36855;SDS011;22788;51.434;6.786;2022-09-03T13:51:54;4.00;;;2.70;;
36855;SDS011;22788;51.434;6.786;2022-09-03T13:54:24;9.45;;;2.65;;
36855;SDS011;22788;51.434;6.786;2022-09-03T13:56:58;5.93;;;2.67;;
36855;SDS011;22788;51.434;6.786;2022-09-03T13:59:28;3.83;;;2.75;;
36855;SDS011;22788;51.434;6.786;2022-09-03T14:02:01;5.40;;;2.72;;
36855;SDS011;22788;51.434;6.786;2022-09-03T14:04:33;5.13;;;2.70;;
36855;SDS011;22788;51.434;6.786;2022-09-03T14:07:05;3.38;;;2.45;;
36855;SDS011;22788;51.434;6.786;2022-09-03T14:09:34;4.43;;;2.33;;
36855;SDS011;22788;51.434;6.786;2022-09-03T14:12:11;2.63;;;2.42;;
36855;SDS011;22788;51.434;6.786;2022-09-03T14:14:40;2.60;;;2.40;;
36855;SDS011;22788;51.434;6.786;2022-09-03T14:17:11;3.45;;;2.30;;
36855;SDS011;22788;51.434;6.786;2022-09-03T14:19:42;5.45;;;2.20;;
36855;SDS011;22788;51.434;6.786;2022-09-03T14:22:12;2.28;;;2.08;;
36855;SDS011;22788;51.434;6.786;2022-09-03T14:24:43;3.10;;;2.35;;
36855;SDS011;22788;51.434;6.786;2022-09-03T14:27:12;6.57;;;2.58;;
36855;SDS011;22788;51.434;6.786;2022-09-03T14:29:48;3.63;;;2.58;;
36855;SDS011;22788;51.434;6.786;2022-09-03T14:32:18;2.65;;;2.25;;
36855;SDS011;22788;51.434;6.786;2022-09-03T14:37:33;3.22;;;2.50;;
36855;SDS011;22788;51.434;6.786;2022-09-03T14:40:09;2.72;;;2.17;;
36855;SDS011;22788;51.434;6.786;2022-09-03T14:42:42;3.42;;;2.60;;
36855;SDS011;22788;51.434;6.786;2022-09-03T14:45:14;4.82;;;2.40;;
36855;SDS011;22788;51.434;6.786;2022-09-03T14:47:49;2.88;;;2.10;;
36855;SDS011;22788;51.434;6.786;2022-09-03T14:50:21;4.32;;;2.38;;
36855;SDS011;22788;51.434;6.786;2022-09-03T14:52:56;4.57;;;2.15;;
36855;SDS011;22788;51.434;6.786;2022-09-03T14:55:28;3.22;;;2.47;;
36855;SDS011;22788;51.434;6.786;2022-09-03T14:58:12;2.50;;;2.30;;
36855;SDS011;22788;51.434;6.786;2022-09-03T15:00:43;4.63;;;2.40;;
36855;SDS011;22788;51.434;6.786;2022-09-03T15:03:23;2.15;;;1.95;;